sensor_id;sensor_type;location;lat;lon;timestamp;P1;durP1;ratioP1;P2;durP2;ratioP2
80748;SDS011;70145;53.746;9.970;2024-02-16T00:00:55;4.20;;;2.22;;
80748;SDS011;70145;53.746;9.970;2024-02-16T00:03:22;5.20;;;2.83;;
80748;SDS011;70145;53.746;9.970;2024-02-16T00:05:47;3.53;;;2.53;;
80748;SDS011;70145;53.746;9.970;2024-02-16T00:08:15;3.63;;;2.08;;
80748;SDS011;70145;53.746;9.970;2024-02-16T00:10:41;5.22;;;2.05;;
80748;SDS011;70145;53.746;9.970;2024-02-16T00:13:07;3.20;;;2.35;;
80748;SDS011;70145;53.746;9.970;2024-02-16T00:15:33;3.95;;;2.97;;
80748;SDS011;70145;53.746;9.970;2024-02-16T00:17:58;3.33;;;2.10;;
80748;SDS011;70145;53.746;9.970;2024-02-16T00:20:24;4.50;;;2.42;;
80748;SDS011;70145;53.746;9.970;2024-02-16T00:22:49;2.40;;;1.77;;
80748;SDS011;70145;53.746;9.970;2024-02-16T00:25:14;3.47;;;1.80;;
80748;SDS011;70145;53.746;9.970;2024-02-16T00:27:40;4.45;;;2.10;;
80748;SDS011;70145;53.746;9.970;2024-02-16T00:30:06;3.42;;;2.08;;
80748;SDS011;70145;53.746;9.970;2024-02-16T00:32:32;4.07;;;2.25;;
80748;SDS011;70145;53.746;9.970;2024-02-16T00:34:58;8.23;;;2.40;;
80748;SDS011;70145;53.746;9.970;2024-02-16T00:37:23;4.93;;;2.35;;
80748;SDS011;70145;53.746;9.970;2024-02-16T00:39:49;3.83;;;2.00;;
80748;SDS011;70145;53.746;9.970;2024-02-16T00:42:14;3.27;;;1.90;;
80748;SDS011;70145;53.746;9.970;2024-02-16T00:44:40;2.28;;;1.92;;
80748;SDS011;70145;53.746;9.970;2024-02-16T00:47:05;3.10;;;2.25;;
80748;SDS011;70145;53.746;9.970;2024-02-16T00:49:31;5.13;;;2.08;;
80748;SDS011;70145;53.746;9.970;2024-02-16T00:51:57;3.92;;;1.80;;
80748;SDS011;70145;53.746;9.970;2024-02-16T00:54:23;3.17;;;2.05;;
80748;SDS011;70145;53.746;9.970;2024-02-16T00:56:48;3.85;;;1.92;;
80748;SDS011;70145;53.746;9.970;2024-02-16T00:59:13;3.77;;;2.20;;
80748;SDS011;70145;53.746;9.970;2024-02-16T01:01:39;3.17;;;2.03;;
80748;SDS011;70145;53.746;9.970;2024-02-16T01:04:04;3.63;;;1.73;;
80748;SDS011;70145;53.746;9.970;2024-02-16T01:06:33;3.38;;;1.52;;
80748;SDS011;70145;53.746;9.970;2024-02-16T01:08:58;3.38;;;2.03;;
80748;SDS011;70145;53.746;9.970;2024-02-16T01:11:24;3.33;;;2.07;;
80748;SDS011;70145;53.746;9.970;2024-02-16T01:13:49;2.47;;;1.48;;
80748;SDS011;70145;53.746;9.970;2024-02-16T01:16:15;2.75;;;2.47;;
80748;SDS011;70145;53.746;9.970;2024-02-16T01:18:42;2.72;;;1.63;;
80748;SDS011;70145;53.746;9.970;2024-02-16T01:21:09;4.28;;;2.20;;
80748;SDS011;70145;53.746;9.970;2024-02-16T01:23:35;3.13;;;1.63;;
80748;SDS011;70145;53.746;9.970;2024-02-16T01:26:03;1.93;;;1.53;;
80748;SDS011;70145;53.746;9.970;2024-02-16T01:28:29;2.10;;;1.38;;
80748;SDS011;70145;53.746;9.970;2024-02-16T01:30:54;3.27;;;2.13;;
80748;SDS011;70145;53.746;9.970;2024-02-16T01:33:21;5.10;;;1.80;;
80748;SDS011;70145;53.746;9.970;2024-02-16T01:35:50;4.05;;;1.45;;
80748;SDS011;70145;53.746;9.970;2024-02-16T01:38:15;3.22;;;1.50;;
80748;SDS011;70145;53.746;9.970;2024-02-16T01:40:40;2.67;;;1.60;;
80748;SDS011;70145;53.746;9.970;2024-02-16T01:43:06;3.00;;;1.60;;
80748;SDS011;70145;53.746;9.970;2024-02-16T01:45:31;2.72;;;1.55;;
80748;SDS011;70145;53.746;9.970;2024-02-16T01:47:56;1.70;;;1.33;;
80748;SDS011;70145;53.746;9.970;2024-02-16T01:50:23;2.47;;;1.60;;
80748;SDS011;70145;53.746;9.970;2024-02-16T01:52:48;4.18;;;1.67;;
80748;SDS011;70145;53.746;9.970;2024-02-16T01:55:15;4.22;;;1.92;;
80748;SDS011;70145;53.746;9.970;2024-02-16T01:57:44;2.63;;;1.58;;
80748;SDS011;70145;53.746;9.970;2024-02-16T02:00:11;4.45;;;1.58;;
80748;SDS011;70145;53.746;9.970;2024-02-16T02:02:39;2.83;;;1.70;;
80748;SDS011;70145;53.746;9.970;2024-02-16T02:05:05;3.15;;;1.90;;
80748;SDS011;70145;53.746;9.970;2024-02-16T02:07:30;4.38;;;1.80;;
80748;SDS011;70145;53.746;9.970;2024-02-16T02:09:56;2.90;;;2.03;;
80748;SDS011;70145;53.746;9.970;2024-02-16T02:12:21;4.10;;;1.70;;
80748;SDS011;70145;53.746;9.970;2024-02-16T02:14:47;3.95;;;1.63;;
80748;SDS011;70145;53.746;9.970;2024-02-16T02:17:17;1.90;;;1.35;;
80748;SDS011;70145;53.746;9.970;2024-02-16T02:19:44;3.28;;;1.55;;
80748;SDS011;70145;53.746;9.970;2024-02-16T02:22:19;1.88;;;1.42;;
80748;SDS011;70145;53.746;9.970;2024-02-16T02:24:45;2.95;;;1.33;;
80748;SDS011;70145;53.746;9.970;2024-02-16T02:27:12;3.70;;;1.52;;
80748;SDS011;70145;53.746;9.970;2024-02-16T02:29:38;4.43;;;1.60;;
80748;SDS011;70145;53.746;9.970;2024-02-16T02:32:04;3.03;;;1.63;;
80748;SDS011;70145;53.746;9.970;2024-02-16T02:34:30;2.25;;;1.38;;
80748;SDS011;70145;53.746;9.970;2024-02-16T02:36:55;3.50;;;1.40;;
80748;SDS011;70145;53.746;9.970;2024-02-16T02:39:21;3.28;;;1.55;;
80748;SDS011;70145;53.746;9.970;2024-02-16T02:41:46;4.05;;;1.25;;
80748;SDS011;70145;53.746;9.970;2024-02-16T02:44:12;2.58;;;1.40;;
80748;SDS011;70145;53.746;9.970;2024-02-16T02:46:37;3.03;;;1.60;;
80748;SDS011;70145;53.746;9.970;2024-02-16T02:49:02;2.20;;;1.50;;
80748;SDS011;70145;53.746;9.970;2024-02-16T02:51:28;3.03;;;1.25;;
80748;SDS011;70145;53.746;9.970;2024-02-16T02:53:54;2.42;;;1.35;;
80748;SDS011;70145;53.746;9.970;2024-02-16T02:56:19;3.63;;;1.30;;
80748;SDS011;70145;53.746;9.970;2024-02-16T02:58:44;2.83;;;1.42;;
80748;SDS011;70145;53.746;9.970;2024-02-16T03:01:10;4.30;;;1.42;;
80748;SDS011;70145;53.746;9.970;2024-02-16T03:03:36;3.65;;;1.52;;
80748;SDS011;70145;53.746;9.970;2024-02-16T03:06:01;3.33;;;1.85;;
80748;SDS011;70145;53.746;9.970;2024-02-16T03:08:28;3.00;;;1.52;;
80748;SDS011;70145;53.746;9.970;2024-02-16T03:10:53;3.03;;;1.70;;
80748;SDS011;70145;53.746;9.970;2024-02-16T03:13:19;2.10;;;1.40;;
80748;SDS011;70145;53.746;9.970;2024-02-16T03:15:44;2.40;;;1.50;;
80748;SDS011;70145;53.746;9.970;2024-02-16T03:18:10;4.40;;;1.65;;
80748;SDS011;70145;53.746;9.970;2024-02-16T03:20:35;2.97;;;1.42;;
80748;SDS011;70145;53.746;9.970;2024-02-16T03:23:01;1.75;;;1.23;;
80748;SDS011;70145;53.746;9.970;2024-02-16T03:25:27;3.33;;;1.52;;
80748;SDS011;70145;53.746;9.970;2024-02-16T03:27:53;1.98;;;1.63;;
80748;SDS011;70145;53.746;9.970;2024-02-16T03:30:19;4.40;;;1.40;;
80748;SDS011;70145;53.746;9.970;2024-02-16T03:32:50;2.17;;;1.50;;
80748;SDS011;70145;53.746;9.970;2024-02-16T03:35:16;3.00;;;1.45;;
80748;SDS011;70145;53.746;9.970;2024-02-16T03:37:42;4.68;;;1.25;;
80748;SDS011;70145;53.746;9.970;2024-02-16T03:40:07;3.40;;;1.52;;
80748;SDS011;70145;53.746;9.970;2024-02-16T03:42:34;2.42;;;1.75;;
80748;SDS011;70145;53.746;9.970;2024-02-16T03:45:00;2.55;;;1.52;;
80748;SDS011;70145;53.746;9.970;2024-02-16T03:47:25;2.25;;;1.50;;
80748;SDS011;70145;53.746;9.970;2024-02-16T03:49:51;2.87;;;1.30;;
80748;SDS011;70145;53.746;9.970;2024-02-16T03:52:17;1.98;;;1.30;;
80748;SDS011;70145;53.746;9.970;2024-02-16T03:54:42;5.18;;;1.85;;
80748;SDS011;70145;53.746;9.970;2024-02-16T03:57:08;2.22;;;1.38;;
80748;SDS011;70145;53.746;9.970;2024-02-16T03:59:36;3.65;;;1.60;;
80748;SDS011;70145;53.746;9.970;2024-02-16T04:02:02;2.80;;;1.58;;
80748;SDS011;70145;53.746;9.970;2024-02-16T04:04:27;3.15;;;1.35;;
80748;SDS011;70145;53.746;9.970;2024-02-16T04:06:52;4.87;;;1.70;;
80748;SDS011;70145;53.746;9.970;2024-02-16T04:09:18;2.60;;;1.50;;
80748;SDS011;70145;53.746;9.970;2024-02-16T04:11:44;2.80;;;1.70;;
80748;SDS011;70145;53.746;9.970;2024-02-16T04:14:10;2.70;;;1.30;;
80748;SDS011;70145;53.746;9.970;2024-02-16T04:16:36;2.20;;;1.58;;
80748;SDS011;70145;53.746;9.970;2024-02-16T04:19:01;2.30;;;1.55;;
80748;SDS011;70145;53.746;9.970;2024-02-16T04:21:27;3.50;;;1.20;;
80748;SDS011;70145;53.746;9.970;2024-02-16T04:23:52;2.07;;;1.33;;
80748;SDS011;70145;53.746;9.970;2024-02-16T04:26:17;1.60;;;1.37;;
80748;SDS011;70145;53.746;9.970;2024-02-16T04:28:43;1.67;;;0.90;;
80748;SDS011;70145;53.746;9.970;2024-02-16T04:31:08;3.40;;;1.30;;
80748;SDS011;70145;53.746;9.970;2024-02-16T04:33:33;1.67;;;1.50;;
80748;SDS011;70145;53.746;9.970;2024-02-16T04:35:58;2.43;;;1.30;;
80748;SDS011;70145;53.746;9.970;2024-02-16T04:38:24;3.73;;;1.63;;
80748;SDS011;70145;53.746;9.970;2024-02-16T04:40:49;2.83;;;1.27;;
80748;SDS011;70145;53.746;9.970;2024-02-16T04:43:14;4.47;;;1.30;;
80748;SDS011;70145;53.746;9.970;2024-02-16T04:45:39;3.65;;;1.45;;
80748;SDS011;70145;53.746;9.970;2024-02-16T04:48:05;4.25;;;1.70;;
80748;SDS011;70145;53.746;9.970;2024-02-16T04:50:34;2.58;;;1.52;;
80748;SDS011;70145;53.746;9.970;2024-02-16T04:53:00;3.72;;;1.52;;
80748;SDS011;70145;53.746;9.970;2024-02-16T04:55:29;3.75;;;1.73;;
80748;SDS011;70145;53.746;9.970;2024-02-16T04:57:55;3.65;;;2.10;;
80748;SDS011;70145;53.746;9.970;2024-02-16T05:00:20;3.65;;;1.42;;
80748;SDS011;70145;53.746;9.970;2024-02-16T05:02:46;2.60;;;1.45;;
80748;SDS011;70145;53.746;9.970;2024-02-16T05:05:11;3.13;;;1.67;;
80748;SDS011;70145;53.746;9.970;2024-02-16T05:07:37;4.28;;;1.63;;
80748;SDS011;70145;53.746;9.970;2024-02-16T05:10:02;2.83;;;1.30;;
80748;SDS011;70145;53.746;9.970;2024-02-16T05:12:28;2.17;;;1.17;;
80748;SDS011;70145;53.746;9.970;2024-02-16T05:14:54;3.50;;;1.42;;
80748;SDS011;70145;53.746;9.970;2024-02-16T05:17:19;2.25;;;1.50;;
80748;SDS011;70145;53.746;9.970;2024-02-16T05:19:45;2.35;;;1.20;;
80748;SDS011;70145;53.746;9.970;2024-02-16T05:22:11;2.33;;;1.23;;
80748;SDS011;70145;53.746;9.970;2024-02-16T05:24:36;2.77;;;1.50;;
80748;SDS011;70145;53.746;9.970;2024-02-16T05:27:02;2.63;;;1.38;;
80748;SDS011;70145;53.746;9.970;2024-02-16T05:29:27;2.25;;;1.30;;
80748;SDS011;70145;53.746;9.970;2024-02-16T05:31:52;4.20;;;1.20;;
80748;SDS011;70145;53.746;9.970;2024-02-16T05:34:18;2.47;;;1.27;;
80748;SDS011;70145;53.746;9.970;2024-02-16T05:36:43;1.92;;;1.40;;
80748;SDS011;70145;53.746;9.970;2024-02-16T05:39:09;5.95;;;1.70;;
80748;SDS011;70145;53.746;9.970;2024-02-16T05:41:45;3.35;;;1.60;;
80748;SDS011;70145;53.746;9.970;2024-02-16T05:44:11;2.50;;;1.33;;
80748;SDS011;70145;53.746;9.970;2024-02-16T05:46:36;3.17;;;1.17;;
80748;SDS011;70145;53.746;9.970;2024-02-16T05:49:03;2.35;;;1.08;;
80748;SDS011;70145;53.746;9.970;2024-02-16T05:51:34;4.13;;;1.30;;
80748;SDS011;70145;53.746;9.970;2024-02-16T05:54:00;2.80;;;1.30;;
80748;SDS011;70145;53.746;9.970;2024-02-16T05:56:26;4.20;;;2.05;;
80748;SDS011;70145;53.746;9.970;2024-02-16T05:58:53;3.33;;;1.40;;
80748;SDS011;70145;53.746;9.970;2024-02-16T06:01:19;3.00;;;1.23;;
80748;SDS011;70145;53.746;9.970;2024-02-16T06:03:45;2.70;;;1.17;;
80748;SDS011;70145;53.746;9.970;2024-02-16T06:06:11;3.33;;;1.07;;
80748;SDS011;70145;53.746;9.970;2024-02-16T06:08:36;2.22;;;1.20;;
80748;SDS011;70145;53.746;9.970;2024-02-16T06:11:01;2.53;;;1.10;;
80748;SDS011;70145;53.746;9.970;2024-02-16T06:13:27;2.60;;;1.08;;
80748;SDS011;70145;53.746;9.970;2024-02-16T06:15:54;2.20;;;1.13;;
80748;SDS011;70145;53.746;9.970;2024-02-16T06:18:19;1.90;;;1.27;;
80748;SDS011;70145;53.746;9.970;2024-02-16T06:20:45;1.98;;;1.13;;
80748;SDS011;70145;53.746;9.970;2024-02-16T06:23:10;2.67;;;1.20;;
80748;SDS011;70145;53.746;9.970;2024-02-16T06:25:35;1.80;;;1.20;;
80748;SDS011;70145;53.746;9.970;2024-02-16T06:28:01;2.53;;;1.13;;
80748;SDS011;70145;53.746;9.970;2024-02-16T06:30:27;2.03;;;1.20;;
80748;SDS011;70145;53.746;9.970;2024-02-16T06:32:53;2.47;;;1.20;;
80748;SDS011;70145;53.746;9.970;2024-02-16T06:35:19;1.65;;;1.30;;
80748;SDS011;70145;53.746;9.970;2024-02-16T06:37:45;2.55;;;1.30;;
80748;SDS011;70145;53.746;9.970;2024-02-16T06:40:10;3.63;;;1.30;;
80748;SDS011;70145;53.746;9.970;2024-02-16T06:42:36;5.25;;;1.60;;
80748;SDS011;70145;53.746;9.970;2024-02-16T06:45:02;4.43;;;1.88;;
80748;SDS011;70145;53.746;9.970;2024-02-16T06:47:30;2.95;;;1.17;;
80748;SDS011;70145;53.746;9.970;2024-02-16T06:49:56;2.13;;;1.02;;
80748;SDS011;70145;53.746;9.970;2024-02-16T06:52:21;1.53;;;1.00;;
80748;SDS011;70145;53.746;9.970;2024-02-16T06:54:46;2.72;;;1.25;;
80748;SDS011;70145;53.746;9.970;2024-02-16T06:57:12;2.93;;;1.00;;
80748;SDS011;70145;53.746;9.970;2024-02-16T06:59:37;3.80;;;1.17;;
80748;SDS011;70145;53.746;9.970;2024-02-16T07:02:02;1.77;;;0.97;;
80748;SDS011;70145;53.746;9.970;2024-02-16T07:04:28;2.90;;;0.98;;
80748;SDS011;70145;53.746;9.970;2024-02-16T07:06:53;2.80;;;1.33;;
80748;SDS011;70145;53.746;9.970;2024-02-16T07:09:18;2.72;;;1.33;;
80748;SDS011;70145;53.746;9.970;2024-02-16T07:11:44;3.83;;;1.37;;
80748;SDS011;70145;53.746;9.970;2024-02-16T07:14:11;3.65;;;1.30;;
80748;SDS011;70145;53.746;9.970;2024-02-16T07:16:37;3.20;;;1.25;;
80748;SDS011;70145;53.746;9.970;2024-02-16T07:19:04;3.20;;;1.73;;
80748;SDS011;70145;53.746;9.970;2024-02-16T07:21:30;3.38;;;1.60;;
80748;SDS011;70145;53.746;9.970;2024-02-16T07:23:55;3.25;;;1.83;;
80748;SDS011;70145;53.746;9.970;2024-02-16T07:26:21;2.70;;;1.48;;
80748;SDS011;70145;53.746;9.970;2024-02-16T07:28:46;3.20;;;1.30;;
80748;SDS011;70145;53.746;9.970;2024-02-16T07:31:12;2.78;;;1.25;;
80748;SDS011;70145;53.746;9.970;2024-02-16T07:33:39;2.22;;;1.05;;
80748;SDS011;70145;53.746;9.970;2024-02-16T07:36:04;1.20;;;0.73;;
80748;SDS011;70145;53.746;9.970;2024-02-16T07:38:30;1.70;;;1.10;;
80748;SDS011;70145;53.746;9.970;2024-02-16T07:40:55;2.93;;;1.67;;
80748;SDS011;70145;53.746;9.970;2024-02-16T07:43:20;3.65;;;1.42;;
80748;SDS011;70145;53.746;9.970;2024-02-16T07:45:49;2.42;;;1.13;;
80748;SDS011;70145;53.746;9.970;2024-02-16T07:48:14;2.05;;;1.00;;
80748;SDS011;70145;53.746;9.970;2024-02-16T07:50:40;4.90;;;1.23;;
80748;SDS011;70145;53.746;9.970;2024-02-16T07:53:05;1.88;;;1.23;;
80748;SDS011;70145;53.746;9.970;2024-02-16T07:55:31;2.45;;;1.42;;
80748;SDS011;70145;53.746;9.970;2024-02-16T07:57:56;3.20;;;1.35;;
80748;SDS011;70145;53.746;9.970;2024-02-16T08:00:21;3.28;;;1.17;;
80748;SDS011;70145;53.746;9.970;2024-02-16T08:02:46;2.30;;;1.38;;
80748;SDS011;70145;53.746;9.970;2024-02-16T08:05:12;2.53;;;1.40;;
80748;SDS011;70145;53.746;9.970;2024-02-16T08:07:38;3.83;;;1.20;;
80748;SDS011;70145;53.746;9.970;2024-02-16T08:10:09;2.95;;;1.33;;
80748;SDS011;70145;53.746;9.970;2024-02-16T08:12:35;1.45;;;0.93;;
80748;SDS011;70145;53.746;9.970;2024-02-16T08:15:01;2.85;;;1.17;;
80748;SDS011;70145;53.746;9.970;2024-02-16T08:17:28;3.15;;;1.58;;
80748;SDS011;70145;53.746;9.970;2024-02-16T08:19:54;3.15;;;1.42;;
80748;SDS011;70145;53.746;9.970;2024-02-16T08:22:19;2.43;;;1.40;;
80748;SDS011;70145;53.746;9.970;2024-02-16T08:24:45;3.70;;;1.02;;
80748;SDS011;70145;53.746;9.970;2024-02-16T08:27:15;3.28;;;1.42;;
80748;SDS011;70145;53.746;9.970;2024-02-16T08:29:40;4.03;;;1.50;;
80748;SDS011;70145;53.746;9.970;2024-02-16T08:32:06;2.20;;;1.20;;
80748;SDS011;70145;53.746;9.970;2024-02-16T08:34:31;2.27;;;1.07;;
80748;SDS011;70145;53.746;9.970;2024-02-16T08:36:56;3.78;;;1.98;;
80748;SDS011;70145;53.746;9.970;2024-02-16T08:39:22;3.20;;;1.33;;
80748;SDS011;70145;53.746;9.970;2024-02-16T08:41:50;2.40;;;1.23;;
80748;SDS011;70145;53.746;9.970;2024-02-16T08:44:18;3.50;;;1.30;;
80748;SDS011;70145;53.746;9.970;2024-02-16T08:46:43;2.50;;;1.55;;
80748;SDS011;70145;53.746;9.970;2024-02-16T08:49:09;3.55;;;1.25;;
80748;SDS011;70145;53.746;9.970;2024-02-16T08:51:35;2.55;;;1.13;;
80748;SDS011;70145;53.746;9.970;2024-02-16T08:54:00;2.60;;;1.42;;
80748;SDS011;70145;53.746;9.970;2024-02-16T08:56:27;1.90;;;1.20;;
80748;SDS011;70145;53.746;9.970;2024-02-16T08:58:52;1.90;;;1.08;;
80748;SDS011;70145;53.746;9.970;2024-02-16T09:01:18;2.10;;;1.27;;
80748;SDS011;70145;53.746;9.970;2024-02-16T09:03:45;2.50;;;1.17;;
80748;SDS011;70145;53.746;9.970;2024-02-16T09:06:12;2.13;;;1.10;;
80748;SDS011;70145;53.746;9.970;2024-02-16T09:08:37;1.40;;;0.90;;
80748;SDS011;70145;53.746;9.970;2024-02-16T09:11:03;2.00;;;1.00;;
80748;SDS011;70145;53.746;9.970;2024-02-16T09:13:35;2.53;;;1.08;;
80748;SDS011;70145;53.746;9.970;2024-02-16T09:16:01;3.85;;;1.30;;
80748;SDS011;70145;53.746;9.970;2024-02-16T09:18:27;1.55;;;1.20;;
80748;SDS011;70145;53.746;9.970;2024-02-16T09:20:52;2.75;;;1.67;;
80748;SDS011;70145;53.746;9.970;2024-02-16T09:23:18;3.15;;;1.17;;
80748;SDS011;70145;53.746;9.970;2024-02-16T09:25:43;2.53;;;1.42;;
80748;SDS011;70145;53.746;9.970;2024-02-16T09:28:10;2.00;;;1.30;;
80748;SDS011;70145;53.746;9.970;2024-02-16T09:30:36;2.47;;;1.00;;
80748;SDS011;70145;53.746;9.970;2024-02-16T09:33:02;2.40;;;1.00;;
80748;SDS011;70145;53.746;9.970;2024-02-16T09:35:28;2.60;;;1.10;;
80748;SDS011;70145;53.746;9.970;2024-02-16T09:37:53;2.43;;;1.20;;
80748;SDS011;70145;53.746;9.970;2024-02-16T09:40:18;3.40;;;1.43;;
80748;SDS011;70145;53.746;9.970;2024-02-16T09:42:47;3.72;;;1.67;;
80748;SDS011;70145;53.746;9.970;2024-02-16T09:45:14;2.20;;;0.98;;
80748;SDS011;70145;53.746;9.970;2024-02-16T09:47:41;1.98;;;1.10;;
80748;SDS011;70145;53.746;9.970;2024-02-16T09:50:09;6.25;;;1.10;;
80748;SDS011;70145;53.746;9.970;2024-02-16T09:52:35;2.35;;;1.17;;
80748;SDS011;70145;53.746;9.970;2024-02-16T09:55:01;2.35;;;1.10;;
80748;SDS011;70145;53.746;9.970;2024-02-16T09:57:26;3.00;;;1.13;;
80748;SDS011;70145;53.746;9.970;2024-02-16T09:59:51;1.98;;;1.33;;
80748;SDS011;70145;53.746;9.970;2024-02-16T10:02:17;2.17;;;1.23;;
80748;SDS011;70145;53.746;9.970;2024-02-16T10:04:42;2.65;;;1.15;;
80748;SDS011;70145;53.746;9.970;2024-02-16T10:07:08;2.85;;;1.73;;
80748;SDS011;70145;53.746;9.970;2024-02-16T10:09:33;2.17;;;1.30;;
80748;SDS011;70145;53.746;9.970;2024-02-16T10:11:58;3.35;;;1.17;;
80748;SDS011;70145;53.746;9.970;2024-02-16T10:14:24;3.35;;;1.60;;
80748;SDS011;70145;53.746;9.970;2024-02-16T10:17:03;2.65;;;0.95;;
80748;SDS011;70145;53.746;9.970;2024-02-16T10:19:29;4.78;;;1.30;;
80748;SDS011;70145;53.746;9.970;2024-02-16T10:22:05;2.75;;;1.33;;
80748;SDS011;70145;53.746;9.970;2024-02-16T10:24:32;6.22;;;1.90;;
80748;SDS011;70145;53.746;9.970;2024-02-16T10:26:57;29.60;;;3.83;;
80748;SDS011;70145;53.746;9.970;2024-02-16T10:29:22;1.90;;;1.00;;
80748;SDS011;70145;53.746;9.970;2024-02-16T10:31:52;2.53;;;1.08;;
80748;SDS011;70145;53.746;9.970;2024-02-16T10:34:17;8.07;;;1.80;;
80748;SDS011;70145;53.746;9.970;2024-02-16T10:36:44;2.53;;;1.30;;
80748;SDS011;70145;53.746;9.970;2024-02-16T10:39:09;7.47;;;1.30;;
80748;SDS011;70145;53.746;9.970;2024-02-16T10:41:42;7.07;;;1.60;;
80748;SDS011;70145;53.746;9.970;2024-02-16T10:44:09;4.60;;;1.73;;
80748;SDS011;70145;53.746;9.970;2024-02-16T10:46:35;5.18;;;1.30;;
80748;SDS011;70145;53.746;9.970;2024-02-16T10:49:01;2.20;;;0.90;;
80748;SDS011;70145;53.746;9.970;2024-02-16T10:51:31;3.20;;;1.48;;
80748;SDS011;70145;53.746;9.970;2024-02-16T10:54:01;7.68;;;1.48;;
80748;SDS011;70145;53.746;9.970;2024-02-16T10:56:34;3.55;;;1.10;;
80748;SDS011;70145;53.746;9.970;2024-02-16T10:59:01;3.33;;;1.42;;
80748;SDS011;70145;53.746;9.970;2024-02-16T11:01:40;4.85;;;1.08;;
80748;SDS011;70145;53.746;9.970;2024-02-16T11:04:08;3.42;;;1.27;;
80748;SDS011;70145;53.746;9.970;2024-02-16T11:06:51;2.40;;;0.90;;
80748;SDS011;70145;53.746;9.970;2024-02-16T11:09:25;1.92;;;0.75;;
80748;SDS011;70145;53.746;9.970;2024-02-16T11:11:55;3.05;;;0.95;;
80748;SDS011;70145;53.746;9.970;2024-02-16T11:14:23;1.08;;;0.82;;
80748;SDS011;70145;53.746;9.970;2024-02-16T11:16:49;2.50;;;0.90;;
80748;SDS011;70145;53.746;9.970;2024-02-16T11:19:18;1.63;;;0.75;;
80748;SDS011;70145;53.746;9.970;2024-02-16T11:21:57;1.65;;;1.00;;
80748;SDS011;70145;53.746;9.970;2024-02-16T11:24:30;2.08;;;1.10;;
80748;SDS011;70145;53.746;9.970;2024-02-16T11:26:57;2.28;;;1.10;;
80748;SDS011;70145;53.746;9.970;2024-02-16T11:29:22;3.40;;;1.20;;
80748;SDS011;70145;53.746;9.970;2024-02-16T11:31:50;1.80;;;1.00;;
80748;SDS011;70145;53.746;9.970;2024-02-16T11:34:24;2.37;;;0.97;;
80748;SDS011;70145;53.746;9.970;2024-02-16T11:36:54;4.85;;;1.10;;
80748;SDS011;70145;53.746;9.970;2024-02-16T11:39:20;3.33;;;1.30;;
80748;SDS011;70145;53.746;9.970;2024-02-16T11:41:47;3.30;;;1.38;;
80748;SDS011;70145;53.746;9.970;2024-02-16T11:44:15;2.28;;;1.00;;
80748;SDS011;70145;53.746;9.970;2024-02-16T11:46:43;2.72;;;1.00;;
80748;SDS011;70145;53.746;9.970;2024-02-16T11:49:08;2.58;;;1.25;;
80748;SDS011;70145;53.746;9.970;2024-02-16T11:51:35;1.40;;;1.02;;
80748;SDS011;70145;53.746;9.970;2024-02-16T11:54:00;2.23;;;1.00;;
80748;SDS011;70145;53.746;9.970;2024-02-16T11:56:26;3.83;;;1.00;;
80748;SDS011;70145;53.746;9.970;2024-02-16T11:58:52;1.90;;;1.70;;
80748;SDS011;70145;53.746;9.970;2024-02-16T12:01:18;1.27;;;0.80;;
80748;SDS011;70145;53.746;9.970;2024-02-16T12:03:43;2.42;;;1.20;;
80748;SDS011;70145;53.746;9.970;2024-02-16T12:06:08;3.67;;;1.57;;
80748;SDS011;70145;53.746;9.970;2024-02-16T12:08:34;1.87;;;1.00;;
80748;SDS011;70145;53.746;9.970;2024-02-16T12:11:00;2.58;;;1.35;;
80748;SDS011;70145;53.746;9.970;2024-02-16T12:13:27;2.95;;;1.02;;
80748;SDS011;70145;53.746;9.970;2024-02-16T12:15:52;2.53;;;1.60;;
80748;SDS011;70145;53.746;9.970;2024-02-16T12:18:19;2.33;;;1.10;;
80748;SDS011;70145;53.746;9.970;2024-02-16T12:21:05;2.08;;;1.13;;
80748;SDS011;70145;53.746;9.970;2024-02-16T12:23:31;3.30;;;1.30;;
80748;SDS011;70145;53.746;9.970;2024-02-16T12:25:58;4.07;;;1.30;;
80748;SDS011;70145;53.746;9.970;2024-02-16T12:28:24;4.72;;;1.77;;
80748;SDS011;70145;53.746;9.970;2024-02-16T12:30:54;3.72;;;1.33;;
80748;SDS011;70145;53.746;9.970;2024-02-16T12:33:23;3.75;;;1.70;;
80748;SDS011;70145;53.746;9.970;2024-02-16T12:35:50;3.47;;;1.60;;
80748;SDS011;70145;53.746;9.970;2024-02-16T12:38:15;6.35;;;1.85;;
80748;SDS011;70145;53.746;9.970;2024-02-16T12:40:47;2.05;;;1.70;;
80748;SDS011;70145;53.746;9.970;2024-02-16T12:43:13;2.45;;;1.33;;
80748;SDS011;70145;53.746;9.970;2024-02-16T12:45:39;3.65;;;1.80;;
80748;SDS011;70145;53.746;9.970;2024-02-16T12:48:05;3.05;;;1.70;;
80748;SDS011;70145;53.746;9.970;2024-02-16T12:50:31;3.33;;;1.95;;
80748;SDS011;70145;53.746;9.970;2024-02-16T12:52:56;3.78;;;2.13;;
80748;SDS011;70145;53.746;9.970;2024-02-16T12:55:22;3.60;;;1.85;;
80748;SDS011;70145;53.746;9.970;2024-02-16T12:57:48;2.90;;;1.60;;
80748;SDS011;70145;53.746;9.970;2024-02-16T13:00:14;3.45;;;1.42;;
80748;SDS011;70145;53.746;9.970;2024-02-16T13:02:40;3.75;;;1.60;;
80748;SDS011;70145;53.746;9.970;2024-02-16T13:05:05;3.43;;;1.70;;
80748;SDS011;70145;53.746;9.970;2024-02-16T13:07:30;2.40;;;1.50;;
80748;SDS011;70145;53.746;9.970;2024-02-16T13:09:56;3.47;;;1.52;;
80748;SDS011;70145;53.746;9.970;2024-02-16T13:12:21;3.85;;;2.13;;
80748;SDS011;70145;53.746;9.970;2024-02-16T13:14:48;2.53;;;1.63;;
80748;SDS011;70145;53.746;9.970;2024-02-16T13:17:14;3.47;;;1.58;;
80748;SDS011;70145;53.746;9.970;2024-02-16T13:19:39;4.13;;;1.83;;
80748;SDS011;70145;53.746;9.970;2024-02-16T13:22:05;2.28;;;1.50;;
80748;SDS011;70145;53.746;9.970;2024-02-16T13:24:30;3.92;;;1.75;;
80748;SDS011;70145;53.746;9.970;2024-02-16T13:26:55;4.53;;;2.00;;
80748;SDS011;70145;53.746;9.970;2024-02-16T13:29:21;3.55;;;1.85;;
80748;SDS011;70145;53.746;9.970;2024-02-16T13:31:46;3.25;;;2.47;;
80748;SDS011;70145;53.746;9.970;2024-02-16T13:34:12;4.88;;;2.28;;
80748;SDS011;70145;53.746;9.970;2024-02-16T13:36:39;4.65;;;2.03;;
80748;SDS011;70145;53.746;9.970;2024-02-16T13:39:05;2.58;;;1.63;;
80748;SDS011;70145;53.746;9.970;2024-02-16T13:41:30;4.97;;;2.42;;
80748;SDS011;70145;53.746;9.970;2024-02-16T13:43:56;3.72;;;2.20;;
80748;SDS011;70145;53.746;9.970;2024-02-16T13:46:21;3.28;;;1.65;;
80748;SDS011;70145;53.746;9.970;2024-02-16T13:48:46;4.30;;;2.15;;
80748;SDS011;70145;53.746;9.970;2024-02-16T13:51:12;4.60;;;1.92;;
80748;SDS011;70145;53.746;9.970;2024-02-16T13:53:38;5.40;;;2.40;;
80748;SDS011;70145;53.746;9.970;2024-02-16T13:56:03;4.07;;;2.10;;
80748;SDS011;70145;53.746;9.970;2024-02-16T13:58:30;8.02;;;2.10;;
80748;SDS011;70145;53.746;9.970;2024-02-16T14:00:56;3.38;;;2.38;;
80748;SDS011;70145;53.746;9.970;2024-02-16T14:03:23;3.90;;;2.20;;
80748;SDS011;70145;53.746;9.970;2024-02-16T14:05:48;3.88;;;2.28;;
80748;SDS011;70145;53.746;9.970;2024-02-16T14:08:14;4.68;;;2.50;;
80748;SDS011;70145;53.746;9.970;2024-02-16T14:10:40;4.88;;;3.45;;
80748;SDS011;70145;53.746;9.970;2024-02-16T14:13:06;3.30;;;2.03;;
80748;SDS011;70145;53.746;9.970;2024-02-16T14:15:31;4.27;;;2.77;;
80748;SDS011;70145;53.746;9.970;2024-02-16T14:17:57;5.40;;;3.08;;
80748;SDS011;70145;53.746;9.970;2024-02-16T14:20:23;8.33;;;3.17;;
80748;SDS011;70145;53.746;9.970;2024-02-16T14:22:48;4.15;;;2.78;;
80748;SDS011;70145;53.746;9.970;2024-02-16T14:25:14;4.53;;;2.60;;
80748;SDS011;70145;53.746;9.970;2024-02-16T14:27:40;5.95;;;2.70;;
80748;SDS011;70145;53.746;9.970;2024-02-16T14:30:06;4.75;;;3.05;;
80748;SDS011;70145;53.746;9.970;2024-02-16T14:32:32;6.72;;;2.50;;
80748;SDS011;70145;53.746;9.970;2024-02-16T14:34:58;5.47;;;2.67;;
80748;SDS011;70145;53.746;9.970;2024-02-16T14:37:23;5.93;;;3.30;;
80748;SDS011;70145;53.746;9.970;2024-02-16T14:39:49;5.57;;;3.15;;
80748;SDS011;70145;53.746;9.970;2024-02-16T14:42:16;7.00;;;3.47;;